sensor_id;sensor_type;location;lat;lon;timestamp;pressure;altitude;pressure_sealevel;temperature;humidity
54854;BME280;40747;49.480;8.658;2023-05-03T00:02:01;101270.44;;;8.69;87.89
54854;BME280;40747;49.480;8.658;2023-05-03T00:04:27;101280.13;;;8.62;88.10
54854;BME280;40747;49.480;8.658;2023-05-03T00:06:53;101284.53;;;8.54;88.00
54854;BME280;40747;49.480;8.658;2023-05-03T00:09:19;101282.78;;;8.58;88.41
54854;BME280;40747;49.480;8.658;2023-05-03T00:11:45;101281.09;;;8.44;88.95
54854;BME280;40747;49.480;8.658;2023-05-03T00:14:10;101275.03;;;8.28;89.02
54854;BME280;40747;49.480;8.658;2023-05-03T00:16:35;101272.38;;;8.34;88.90
54854;BME280;40747;49.480;8.658;2023-05-03T00:19:01;101279.31;;;8.51;88.77
54854;BME280;40747;49.480;8.658;2023-05-03T00:21:26;101268.84;;;8.43;88.54
54854;BME280;40747;49.480;8.658;2023-05-03T00:23:52;101285.47;;;8.41;88.10
54854;BME280;40747;49.480;8.658;2023-05-03T00:26:18;101281.09;;;8.43;87.96
54854;BME280;40747;49.480;8.658;2023-05-03T00:28:43;101275.88;;;8.36;87.86
54854;BME280;40747;49.480;8.658;2023-05-03T00:31:09;101278.47;;;8.47;87.83
54854;BME280;40747;49.480;8.658;2023-05-03T00:33:35;101276.72;;;8.42;87.60
54854;BME280;40747;49.480;8.658;2023-05-03T00:36:11;101269.81;;;8.28;88.40
54854;BME280;40747;49.480;8.658;2023-05-03T00:38:37;101268.09;;;8.18;88.67
54854;BME280;40747;49.480;8.658;2023-05-03T00:41:03;101264.72;;;8.02;89.34
54854;BME280;40747;49.480;8.658;2023-05-03T00:43:29;101272.50;;;8.16;89.49
54854;BME280;40747;49.480;8.658;2023-05-03T00:45:55;101244.56;;;8.02;89.02
54854;BME280;40747;49.480;8.658;2023-05-03T00:48:21;101257.69;;;8.04;89.25
54854;BME280;40747;49.480;8.658;2023-05-03T00:50:46;101270.72;;;8.21;88.55
54854;BME280;40747;49.480;8.658;2023-05-03T00:53:12;101261.97;;;8.19;88.68
54854;BME280;40747;49.480;8.658;2023-05-03T00:55:38;101262.94;;;8.02;89.52
54854;BME280;40747;49.480;8.658;2023-05-03T00:58:04;101262.91;;;8.09;88.71
54854;BME280;40747;49.480;8.658;2023-05-03T01:00:31;101268.13;;;8.16;88.94
54854;BME280;40747;49.480;8.658;2023-05-03T01:02:56;101259.28;;;8.30;88.43
54854;BME280;40747;49.480;8.658;2023-05-03T01:05:21;101266.19;;;8.51;88.21
54854;BME280;40747;49.480;8.658;2023-05-03T01:07:59;101260.06;;;8.52;86.37
54854;BME280;40747;49.480;8.658;2023-05-03T01:10:54;101259.22;;;8.37;87.68
54854;BME280;40747;49.480;8.658;2023-05-03T01:13:38;101253.03;;;8.57;87.12
54854;BME280;40747;49.480;8.658;2023-05-03T01:16:22;101216.25;;;8.54;86.69
54854;BME280;40747;49.480;8.658;2023-05-03T01:18:50;101235.34;;;8.78;86.00
54854;BME280;40747;49.480;8.658;2023-05-03T01:21:18;101229.34;;;8.63;85.55
54854;BME280;40747;49.480;8.658;2023-05-03T01:24:02;101242.53;;;8.54;86.04
54854;BME280;40747;49.480;8.658;2023-05-03T01:26:28;101233.81;;;8.49;86.07
54854;BME280;40747;49.480;8.658;2023-05-03T01:28:54;101233.69;;;8.67;85.73
54854;BME280;40747;49.480;8.658;2023-05-03T01:31:36;101232.69;;;8.81;85.82
54854;BME280;40747;49.480;8.658;2023-05-03T01:36:42;101239.16;;;8.32;85.73
54854;BME280;40747;49.480;8.658;2023-05-03T01:39:13;101213.94;;;8.11;87.00
54854;BME280;40747;49.480;8.658;2023-05-03T01:41:41;101237.31;;;8.45;87.07
54854;BME280;40747;49.480;8.658;2023-05-03T01:44:08;101233.72;;;8.63;86.38
54854;BME280;40747;49.480;8.658;2023-05-03T01:46:40;101238.81;;;8.81;85.72
54854;BME280;40747;49.480;8.658;2023-05-03T01:49:06;101241.72;;;8.43;85.53
54854;BME280;40747;49.480;8.658;2023-05-03T01:51:31;101236.44;;;8.49;86.33
54854;BME280;40747;49.480;8.658;2023-05-03T01:53:56;101236.31;;;8.66;85.93
54854;BME280;40747;49.480;8.658;2023-05-03T01:56:21;101244.16;;;8.72;85.53
54854;BME280;40747;49.480;8.658;2023-05-03T01:58:47;101212.72;;;8.61;85.11
54854;BME280;40747;49.480;8.658;2023-05-03T02:01:12;101239.78;;;8.71;84.34
54854;BME280;40747;49.480;8.658;2023-05-03T02:03:37;101232.84;;;8.62;85.26
54854;BME280;40747;49.480;8.658;2023-05-03T02:06:03;101238.13;;;8.58;84.70
54854;BME280;40747;49.480;8.658;2023-05-03T02:08:28;101234.06;;;8.09;86.78
54854;BME280;40747;49.480;8.658;2023-05-03T02:10:53;101227.78;;;8.30;86.55
54854;BME280;40747;49.480;8.658;2023-05-03T02:13:19;101244.44;;;8.26;86.00
54854;BME280;40747;49.480;8.658;2023-05-03T02:15:44;101239.25;;;8.21;86.52
54854;BME280;40747;49.480;8.658;2023-05-03T02:18:09;101235.63;;;8.39;86.40
54854;BME280;40747;49.480;8.658;2023-05-03T02:20:35;101237.38;;;8.37;86.09
54854;BME280;40747;49.480;8.658;2023-05-03T02:23:05;101236.34;;;8.61;85.02
54854;BME280;40747;49.480;8.658;2023-05-03T02:25:30;101245.22;;;8.49;85.59
54854;BME280;40747;49.480;8.658;2023-05-03T02:27:56;101226.78;;;8.54;85.74
54854;BME280;40747;49.480;8.658;2023-05-03T02:30:21;101244.16;;;8.74;85.42
54854;BME280;40747;49.480;8.658;2023-05-03T02:32:46;101242.38;;;8.77;85.40
54854;BME280;40747;49.480;8.658;2023-05-03T02:35:11;101251.91;;;8.84;84.97
54854;BME280;40747;49.480;8.658;2023-05-03T02:37:37;101250.19;;;8.82;84.19
54854;BME280;40747;49.480;8.658;2023-05-03T02:40:02;101259.84;;;8.81;84.33
54854;BME280;40747;49.480;8.658;2023-05-03T02:42:29;101255.47;;;8.80;85.57
54854;BME280;40747;49.480;8.658;2023-05-03T02:44:55;101261.56;;;8.81;84.86
54854;BME280;40747;49.480;8.658;2023-05-03T02:47:20;101253.72;;;8.82;85.90
54854;BME280;40747;49.480;8.658;2023-05-03T02:49:46;101256.25;;;8.89;85.51
54854;BME280;40747;49.480;8.658;2023-05-03T02:52:12;101257.09;;;8.92;85.18
54854;BME280;40747;49.480;8.658;2023-05-03T02:54:37;101267.53;;;9.00;85.65
54854;BME280;40747;49.480;8.658;2023-05-03T02:57:02;101260.53;;;8.99;84.92
54854;BME280;40747;49.480;8.658;2023-05-03T02:59:28;101261.41;;;9.02;85.09
54854;BME280;40747;49.480;8.658;2023-05-03T03:01:53;101265.09;;;8.81;85.18
54854;BME280;40747;49.480;8.658;2023-05-03T03:04:19;101259.28;;;8.30;85.37
54854;BME280;40747;49.480;8.658;2023-05-03T03:06:44;101265.44;;;8.30;86.61
54854;BME280;40747;49.480;8.658;2023-05-03T03:09:10;101257.47;;;8.50;86.39
54854;BME280;40747;49.480;8.658;2023-05-03T03:11:36;101267.97;;;8.40;86.29
54854;BME280;40747;49.480;8.658;2023-05-03T03:14:02;101254.94;;;8.29;86.30
54854;BME280;40747;49.480;8.658;2023-05-03T03:16:27;101271.63;;;8.18;87.13
54854;BME280;40747;49.480;8.658;2023-05-03T03:18:52;101266.38;;;8.15;86.65
54854;BME280;40747;49.480;8.658;2023-05-03T03:21:18;101264.84;;;7.68;88.57
54854;BME280;40747;49.480;8.658;2023-05-03T03:23:43;101261.41;;;7.47;89.79
54854;BME280;40747;49.480;8.658;2023-05-03T03:26:08;101257.00;;;7.59;89.79
54854;BME280;40747;49.480;8.658;2023-05-03T03:28:33;101264.81;;;7.71;89.28
54854;BME280;40747;49.480;8.658;2023-05-03T03:30:59;101259.59;;;7.68;89.53
54854;BME280;40747;49.480;8.658;2023-05-03T03:33:24;101255.06;;;8.02;89.38
54854;BME280;40747;49.480;8.658;2023-05-03T03:35:49;101258.44;;;8.23;88.80
54854;BME280;40747;49.480;8.658;2023-05-03T03:38:15;101254.91;;;8.27;87.33
54854;BME280;40747;49.480;8.658;2023-05-03T03:40:40;101258.47;;;8.26;87.07
54854;BME280;40747;49.480;8.658;2023-05-03T03:43:05;101240.13;;;8.15;87.57
54854;BME280;40747;49.480;8.658;2023-05-03T03:45:31;101256.81;;;8.03;87.34
54854;BME280;40747;49.480;8.658;2023-05-03T03:47:56;101249.81;;;8.02;87.45
54854;BME280;40747;49.480;8.658;2023-05-03T03:50:23;101257.75;;;7.95;87.74
54854;BME280;40747;49.480;8.658;2023-05-03T03:52:49;101261.25;;;7.87;88.25
54854;BME280;40747;49.480;8.658;2023-05-03T03:55:14;101256.00;;;7.97;87.79
54854;BME280;40747;49.480;8.658;2023-05-03T03:57:39;101268.31;;;7.79;88.66
54854;BME280;40747;49.480;8.658;2023-05-03T04:00:06;101258.59;;;7.95;88.24
54854;BME280;40747;49.480;8.658;2023-05-03T04:02:35;101255.19;;;7.84;88.59
54854;BME280;40747;49.480;8.658;2023-05-03T04:05:01;101259.56;;;7.79;87.74
54854;BME280;40747;49.480;8.658;2023-05-03T04:07:26;101241.22;;;7.76;88.02
54854;BME280;40747;49.480;8.658;2023-05-03T04:09:51;101255.22;;;7.71;88.30
54854;BME280;40747;49.480;8.658;2023-05-03T04:12:17;101253.47;;;7.70;88.22
54854;BME280;40747;49.480;8.658;2023-05-03T04:14:42;101258.72;;;7.64;88.34
54854;BME280;40747;49.480;8.658;2023-05-03T04:17:08;101253.50;;;7.61;88.69
54854;BME280;40747;49.480;8.658;2023-05-03T04:19:33;101222.13;;;7.38;89.18
54854;BME280;40747;49.480;8.658;2023-05-03T04:21:58;101255.22;;;7.71;89.07
54854;BME280;40747;49.480;8.658;2023-05-03T04:24:23;101257.00;;;7.59;89.45
54854;BME280;40747;49.480;8.658;2023-05-03T04:26:49;101257.91;;;7.50;90.12
54854;BME280;40747;49.480;8.658;2023-05-03T04:29:15;101258.84;;;7.30;91.00
54854;BME280;40747;49.480;8.658;2023-05-03T04:31:42;101260.56;;;7.31;91.50
54854;BME280;40747;49.480;8.658;2023-05-03T04:34:07;101262.31;;;7.32;91.48
54854;BME280;40747;49.480;8.658;2023-05-03T04:36:34;101271.91;;;7.40;91.66
54854;BME280;40747;49.480;8.658;2023-05-03T04:38:59;101275.34;;;7.55;90.54
54854;BME280;40747;49.480;8.658;2023-05-03T04:41:25;101271.88;;;7.61;90.86
54854;BME280;40747;49.480;8.658;2023-05-03T04:43:50;101276.19;;;7.71;89.88
54854;BME280;40747;49.480;8.658;2023-05-03T04:46:16;101271.78;;;7.84;88.64
54854;BME280;40747;49.480;8.658;2023-05-03T04:48:43;101272.63;;;7.91;88.47
54854;BME280;40747;49.480;8.658;2023-05-03T04:51:08;101263.88;;;7.92;89.22
54854;BME280;40747;49.480;8.658;2023-05-03T04:53:33;101283.13;;;7.94;88.80
54854;BME280;40747;49.480;8.658;2023-05-03T04:55:59;101275.19;;;8.08;88.10
54854;BME280;40747;49.480;8.658;2023-05-03T04:58:24;101287.34;;;8.17;88.19
54854;BME280;40747;49.480;8.658;2023-05-03T05:00:49;101264.66;;;8.10;87.49
54854;BME280;40747;49.480;8.658;2023-05-03T05:03:15;101274.34;;;7.95;88.11
54854;BME280;40747;49.480;8.658;2023-05-03T05:05:40;101279.59;;;7.95;88.96
54854;BME280;40747;49.480;8.658;2023-05-03T05:08:05;101279.72;;;7.61;89.89
54854;BME280;40747;49.480;8.658;2023-05-03T05:10:35;101278.78;;;7.76;90.40
54854;BME280;40747;49.480;8.658;2023-05-03T05:13:00;101254.38;;;7.65;90.52
54854;BME280;40747;49.480;8.658;2023-05-03T05:15:25;101277.94;;;7.74;90.50
54854;BME280;40747;49.480;8.658;2023-05-03T05:17:51;101278.72;;;7.95;90.20
54854;BME280;40747;49.480;8.658;2023-05-03T05:20:16;101275.09;;;8.19;89.60
54854;BME280;40747;49.480;8.658;2023-05-03T05:22:41;101275.13;;;8.16;88.00
54854;BME280;40747;49.480;8.658;2023-05-03T05:25:07;101276.00;;;8.15;88.80
54854;BME280;40747;49.480;8.658;2023-05-03T05:27:33;101277.63;;;8.34;88.52
54854;BME280;40747;49.480;8.658;2023-05-03T05:29:59;101278.50;;;8.38;88.34
54854;BME280;40747;49.480;8.658;2023-05-03T05:32:24;101284.69;;;8.23;88.47
54854;BME280;40747;49.480;8.658;2023-05-03T05:34:50;101290.97;;;7.94;89.78
54854;BME280;40747;49.480;8.658;2023-05-03T05:37:20;101291.88;;;7.88;90.14
54854;BME280;40747;49.480;8.658;2023-05-03T05:39:45;101290.06;;;7.95;90.50
54854;BME280;40747;49.480;8.658;2023-05-03T05:42:11;101296.25;;;7.90;91.23
54854;BME280;40747;49.480;8.658;2023-05-03T05:44:36;101295.38;;;7.86;90.97
54854;BME280;40747;49.480;8.658;2023-05-03T05:47:01;101296.31;;;7.73;92.17
54854;BME280;40747;49.480;8.658;2023-05-03T05:49:27;101286.69;;;7.68;91.55
54854;BME280;40747;49.480;8.658;2023-05-03T05:51:52;101288.38;;;7.83;90.76
54854;BME280;40747;49.480;8.658;2023-05-03T05:54:18;101251.72;;;7.79;90.07
54854;BME280;40747;49.480;8.658;2023-05-03T05:56:43;101284.75;;;8.14;89.98
54854;BME280;40747;49.480;8.658;2023-05-03T05:59:08;101261.16;;;8.11;88.84
54854;BME280;40747;49.480;8.658;2023-05-03T06:01:34;101287.19;;;8.52;89.18
54854;BME280;40747;49.480;8.658;2023-05-03T06:04:00;101284.41;;;8.74;88.19
54854;BME280;40747;49.480;8.658;2023-05-03T06:06:25;101283.59;;;8.63;86.94
54854;BME280;40747;49.480;8.658;2023-05-03T06:08:51;101279.16;;;8.73;86.74
54854;BME280;40747;49.480;8.658;2023-05-03T06:11:16;101282.66;;;8.76;86.81
54854;BME280;40747;49.480;8.658;2023-05-03T06:13:42;101279.81;;;9.01;85.80
54854;BME280;40747;49.480;8.658;2023-05-03T06:16:08;101277.97;;;9.12;85.91
54854;BME280;40747;49.480;8.658;2023-05-03T06:18:33;101278.84;;;9.10;85.75
54854;BME280;40747;49.480;8.658;2023-05-03T06:20:58;101264.97;;;8.97;85.31
54854;BME280;40747;49.480;8.658;2023-05-03T06:23:24;101259.81;;;8.84;86.15
54854;BME280;40747;49.480;8.658;2023-05-03T06:25:51;101277.94;;;9.17;84.66
54854;BME280;40747;49.480;8.658;2023-05-03T06:28:17;101279.84;;;8.98;85.01
54854;BME280;40747;49.480;8.658;2023-05-03T06:30:47;101282.22;;;9.27;84.00
54854;BME280;40747;49.480;8.658;2023-05-03T06:33:13;101277.16;;;9.04;84.29
54854;BME280;40747;49.480;8.658;2023-05-03T06:35:38;101283.97;;;9.25;85.06
54854;BME280;40747;49.480;8.658;2023-05-03T06:38:05;101281.47;;;9.11;84.37
54854;BME280;40747;49.480;8.658;2023-05-03T06:40:30;101275.22;;;9.23;84.56
54854;BME280;40747;49.480;8.658;2023-05-03T06:42:56;101275.22;;;9.23;84.97
54854;BME280;40747;49.480;8.658;2023-05-03T06:45:21;101270.38;;;9.67;84.03
54854;BME280;40747;49.480;8.658;2023-05-03T06:47:46;101268.50;;;9.78;83.06
54854;BME280;40747;49.480;8.658;2023-05-03T06:50:11;101265.78;;;9.86;82.52
54854;BME280;40747;49.480;8.658;2023-05-03T06:52:38;101265.38;;;10.14;82.71
54854;BME280;40747;49.480;8.658;2023-05-03T06:55:03;101253.25;;;10.05;80.10
54854;BME280;40747;49.480;8.658;2023-05-03T06:57:29;101267.22;;;10.10;80.93
54854;BME280;40747;49.480;8.658;2023-05-03T06:59:54;101273.88;;;10.38;81.57
54854;BME280;40747;49.480;8.658;2023-05-03T07:02:19;101284.97;;;10.58;79.81
54854;BME280;40747;49.480;8.658;2023-05-03T07:04:45;101290.09;;;10.68;79.58
54854;BME280;40747;49.480;8.658;2023-05-03T07:07:11;101280.94;;;10.92;79.56
54854;BME280;40747;49.480;8.658;2023-05-03T07:09:36;101279.81;;;11.07;78.77
54854;BME280;40747;49.480;8.658;2023-05-03T07:12:01;101267.50;;;11.06;78.68
54854;BME280;40747;49.480;8.658;2023-05-03T07:14:27;101278.38;;;11.37;77.29
54854;BME280;40747;49.480;8.658;2023-05-03T07:16:52;101281.22;;;11.73;75.94
54854;BME280;40747;49.480;8.658;2023-05-03T07:19:18;101274.63;;;11.94;76.28
54854;BME280;40747;49.480;8.658;2023-05-03T07:21:43;101271.22;;;11.89;74.96
54854;BME280;40747;49.480;8.658;2023-05-03T07:24:09;101267.97;;;12.19;73.89
54854;BME280;40747;49.480;8.658;2023-05-03T07:26:37;101269.06;;;12.48;73.83
54854;BME280;40747;49.480;8.658;2023-05-03T07:29:02;101267.69;;;12.69;72.91
54854;BME280;40747;49.480;8.658;2023-05-03T07:31:27;101265.88;;;13.05;72.20
54854;BME280;40747;49.480;8.658;2023-05-03T07:33:52;101258.75;;;13.09;71.79
54854;BME280;40747;49.480;8.658;2023-05-03T07:36:18;101250.00;;;13.40;72.48
54854;BME280;40747;49.480;8.658;2023-05-03T07:38:43;101228.72;;;13.76;70.69
54854;BME280;40747;49.480;8.658;2023-05-03T07:41:08;101254.47;;;13.71;68.41
54854;BME280;40747;49.480;8.658;2023-05-03T07:43:34;101251.31;;;13.88;68.36
54854;BME280;40747;49.480;8.658;2023-05-03T07:45:59;101242.38;;;14.20;70.12
54854;BME280;40747;49.480;8.658;2023-05-03T07:48:25;101249.84;;;14.91;68.36
54854;BME280;40747;49.480;8.658;2023-05-03T07:50:51;101245.66;;;15.36;69.18
54854;BME280;40747;49.480;8.658;2023-05-03T07:53:16;101244.94;;;15.80;65.10
54854;BME280;40747;49.480;8.658;2023-05-03T07:55:41;101241.31;;;16.06;63.59
54854;BME280;40747;49.480;8.658;2023-05-03T07:58:07;101249.72;;;16.62;62.24
54854;BME280;40747;49.480;8.658;2023-05-03T08:00:32;101246.53;;;16.53;61.19
54854;BME280;40747;49.480;8.658;2023-05-03T08:02:58;101208.53;;;16.72;60.33
54854;BME280;40747;49.480;8.658;2023-05-03T08:05:23;101250.34;;;17.32;59.41
54854;BME280;40747;49.480;8.658;2023-05-03T08:07:49;101239.09;;;17.04;59.33
54854;BME280;40747;49.480;8.658;2023-05-03T08:10:14;101252.41;;;16.62;59.70
54854;BME280;40747;49.480;8.658;2023-05-03T08:12:40;101244.97;;;16.48;60.17
54854;BME280;40747;49.480;8.658;2023-05-03T08:15:06;101253.44;;;16.13;61.16
54854;BME280;40747;49.480;8.658;2023-05-03T08:17:39;101253.34;;;16.16;61.87
54854;BME280;40747;49.480;8.658;2023-05-03T08:20:07;101253.66;;;16.07;62.17
54854;BME280;40747;49.480;8.658;2023-05-03T08:22:32;101240.81;;;16.18;61.55
54854;BME280;40747;49.480;8.658;2023-05-03T08:24:59;101250.50;;;16.86;60.38
54854;BME280;40747;49.480;8.658;2023-05-03T08:27:25;101248.22;;;17.19;59.31
54854;BME280;40747;49.480;8.658;2023-05-03T08:29:52;101248.75;;;17.48;58.11
54854;BME280;40747;49.480;8.658;2023-05-03T08:32:18;101242.28;;;17.92;58.12
54854;BME280;40747;49.480;8.658;2023-05-03T08:34:44;101244.47;;;18.22;57.65
54854;BME280;40747;49.480;8.658;2023-05-03T08:37:10;101236.00;;;17.95;58.05
54854;BME280;40747;49.480;8.658;2023-05-03T08:39:35;101231.09;;;18.41;56.52
54854;BME280;40747;49.480;8.658;2023-05-03T08:42:06;101227.88;;;19.24;55.44
54854;BME280;40747;49.480;8.658;2023-05-03T08:44:36;101227.78;;;19.59;54.41
54854;BME280;40747;49.480;8.658;2023-05-03T08:47:02;101222.47;;;19.75;58.09
54854;BME280;40747;49.480;8.658;2023-05-03T08:49:30;101213.44;;;19.77;53.38
54854;BME280;40747;49.480;8.658;2023-05-03T08:51:57;101230.78;;;17.73;56.40
54854;BME280;40747;49.480;8.658;2023-05-03T08:54:24;101233.16;;;17.18;58.46
54854;BME280;40747;49.480;8.658;2023-05-03T08:56:49;101229.44;;;17.02;58.86
54854;BME280;40747;49.480;8.658;2023-05-03T08:59:15;101227.22;;;16.70;58.47
54854;BME280;40747;49.480;8.658;2023-05-03T09:01:41;101227.09;;;17.75;57.94
54854;BME280;40747;49.480;8.658;2023-05-03T09:04:08;101232.69;;;17.50;57.40
54854;BME280;40747;49.480;8.658;2023-05-03T09:06:34;101241.78;;;18.41;59.18
54854;BME280;40747;49.480;8.658;2023-05-03T09:09:00;101235.09;;;18.87;54.44
54854;BME280;40747;49.480;8.658;2023-05-03T09:11:28;101240.09;;;18.21;55.96
54854;BME280;40747;49.480;8.658;2023-05-03T09:14:16;101224.88;;;19.30;55.17
54854;BME280;40747;49.480;8.658;2023-05-03T09:16:43;101225.59;;;19.83;54.09
54854;BME280;40747;49.480;8.658;2023-05-03T09:19:09;101238.50;;;19.92;53.34
54854;BME280;40747;49.480;8.658;2023-05-03T09:21:37;101236.13;;;20.34;53.83
54854;BME280;40747;49.480;8.658;2023-05-03T09:26:39;101239.81;;;19.50;53.11
54854;BME280;40747;49.480;8.658;2023-05-03T09:29:05;101240.50;;;18.85;53.54
54854;BME280;40747;49.480;8.658;2023-05-03T09:31:32;101229.22;;;19.48;53.70
54854;BME280;40747;49.480;8.658;2023-05-03T09:33:58;101219.84;;;19.24;54.34
54854;BME280;40747;49.480;8.658;2023-05-03T09:36:25;101217.59;;;19.83;53.31
54854;BME280;40747;49.480;8.658;2023-05-03T09:38:52;101222.63;;;20.05;52.56
54854;BME280;40747;49.480;8.658;2023-05-03T09:41:27;101227.44;;;20.14;52.31
54854;BME280;40747;49.480;8.658;2023-05-03T09:43:54;101221.38;;;20.43;51.25
54854;BME280;40747;49.480;8.658;2023-05-03T09:46:21;101213.06;;;21.08;49.90
54854;BME280;40747;49.480;8.658;2023-05-03T09:48:51;101207.00;;;20.76;50.15
54854;BME280;40747;49.480;8.658;2023-05-03T09:51:21;101195.28;;;21.07;50.31
54854;BME280;40747;49.480;8.658;2023-05-03T09:53:47;101200.00;;;21.33;51.74
54854;BME280;40747;49.480;8.658;2023-05-03T09:56:13;101206.47;;;21.00;50.81
54854;BME280;40747;49.480;8.658;2023-05-03T09:58:40;101200.34;;;20.83;50.85
54854;BME280;40747;49.480;8.658;2023-05-03T10:01:07;101202.56;;;21.05;50.33
54854;BME280;40747;49.480;8.658;2023-05-03T10:03:33;101198.72;;;20.95;51.59
54854;BME280;40747;49.480;8.658;2023-05-03T10:06:04;101192.22;;;20.69;51.70
54854;BME280;40747;49.480;8.658;2023-05-03T10:08:34;101189.94;;;21.36;52.43
54854;BME280;40747;49.480;8.658;2023-05-03T10:11:02;101188.69;;;21.13;51.86
54854;BME280;40747;49.480;8.658;2023-05-03T10:13:28;101183.44;;;21.26;51.41
54854;BME280;40747;49.480;8.658;2023-05-03T10:16:01;101185.56;;;21.64;50.20
54854;BME280;40747;49.480;8.658;2023-05-03T10:18:31;101181.38;;;21.60;50.17
54854;BME280;40747;49.480;8.658;2023-05-03T10:21:10;101179.03;;;21.54;52.09
54854;BME280;40747;49.480;8.658;2023-05-03T10:24:12;101175.47;;;21.82;49.80
54854;BME280;40747;49.480;8.658;2023-05-03T10:26:44;101171.25;;;21.92;49.73
54854;BME280;40747;49.480;8.658;2023-05-03T10:31:55;101157.19;;;22.16;49.04
54854;BME280;40747;49.480;8.658;2023-05-03T10:34:23;101154.28;;;22.47;49.19
54854;BME280;40747;49.480;8.658;2023-05-03T10:36:50;101156.31;;;21.74;48.89
54854;BME280;40747;49.480;8.658;2023-05-03T10:39:18;101163.78;;;21.83;49.83
54854;BME280;40747;49.480;8.658;2023-05-03T10:41:44;101151.25;;;20.97;50.99
54854;BME280;40747;49.480;8.658;2023-05-03T10:44:25;101144.78;;;21.30;49.91
54854;BME280;40747;49.480;8.658;2023-05-03T10:46:52;101146.69;;;20.99;51.45
54854;BME280;40747;49.480;8.658;2023-05-03T10:49:20;101144.81;;;19.94;52.76
54854;BME280;40747;49.480;8.658;2023-05-03T10:51:46;101141.09;;;20.43;51.51
54854;BME280;40747;49.480;8.658;2023-05-03T10:54:11;101143.59;;;20.00;51.90
54854;BME280;40747;49.480;8.658;2023-05-03T10:56:53;101139.69;;;19.57;52.44
54854;BME280;40747;49.480;8.658;2023-05-03T10:59:19;101135.94;;;20.40;51.93
54854;BME280;40747;49.480;8.658;2023-05-03T11:01:45;101134.06;;;21.30;51.04
54854;BME280;40747;49.480;8.658;2023-05-03T11:04:21;101132.44;;;20.54;50.87
54854;BME280;40747;49.480;8.658;2023-05-03T11:06:47;101130.34;;;21.04;51.20
54854;BME280;40747;49.480;8.658;2023-05-03T11:09:16;101133.31;;;21.28;50.48
54854;BME280;40747;49.480;8.658;2023-05-03T11:11:41;101129.59;;;21.87;49.41
54854;BME280;40747;49.480;8.658;2023-05-03T11:14:08;101131.34;;;22.01;49.31
54854;BME280;40747;49.480;8.658;2023-05-03T11:16:37;101126.16;;;21.85;49.15
54854;BME280;40747;49.480;8.658;2023-05-03T11:19:12;101132.31;;;21.72;49.41
54854;BME280;40747;49.480;8.658;2023-05-03T11:21:38;101121.75;;;21.84;48.58
54854;BME280;40747;49.480;8.658;2023-05-03T11:24:04;101112.81;;;22.10;48.23
54854;BME280;40747;49.480;8.658;2023-05-03T11:26:35;101118.41;;;22.48;48.78
54854;BME280;40747;49.480;8.658;2023-05-03T11:29:00;101120.88;;;22.10;49.04
54854;BME280;40747;49.480;8.658;2023-05-03T11:31:25;101116.47;;;22.09;49.31
54854;BME280;40747;49.480;8.658;2023-05-03T11:33:52;101107.59;;;22.22;48.21
54854;BME280;40747;49.480;8.658;2023-05-03T11:36:17;101120.25;;;22.20;47.91
54854;BME280;40747;49.480;8.658;2023-05-03T11:38:42;101110.06;;;22.25;49.46
54854;BME280;40747;49.480;8.658;2023-05-03T11:41:14;101108.34;;;22.51;48.19
54854;BME280;40747;49.480;8.658;2023-05-03T11:43:45;101095.56;;;22.55;47.35
54854;BME280;40747;49.480;8.658;2023-05-03T11:46:12;101095.88;;;21.55;49.35
54854;BME280;40747;49.480;8.658;2023-05-03T11:48:38;101097.03;;;20.49;50.59
54854;BME280;40747;49.480;8.658;2023-05-03T11:51:07;101096.59;;;21.01;50.08
54854;BME280;40747;49.480;8.658;2023-05-03T11:53:36;101088.44;;;21.17;49.49
54854;BME280;40747;49.480;8.658;2023-05-03T11:56:06;101090.88;;;21.49;49.96
54854;BME280;40747;49.480;8.658;2023-05-03T11:58:31;101092.53;;;21.08;50.00
54854;BME280;40747;49.480;8.658;2023-05-03T12:00:57;101089.53;;;21.42;48.99
54854;BME280;40747;49.480;8.658;2023-05-03T12:03:23;101091.34;;;21.56;48.23
54854;BME280;40747;49.480;8.658;2023-05-03T12:05:50;101075.09;;;21.59;48.29
54854;BME280;40747;49.480;8.658;2023-05-03T12:08:17;101093.13;;;21.84;48.24
54854;BME280;40747;49.480;8.658;2023-05-03T12:10:44;101090.28;;;21.58;49.64
54854;BME280;40747;49.480;8.658;2023-05-03T12:13:09;101084.66;;;21.34;48.79
54854;BME280;40747;49.480;8.658;2023-05-03T12:15:37;101080.56;;;20.56;50.41
54854;BME280;40747;49.480;8.658;2023-05-03T12:18:07;101083.94;;;20.29;51.31
54854;BME280;40747;49.480;8.658;2023-05-03T12:20:33;101080.63;;;20.55;51.34
54854;BME280;40747;49.480;8.658;2023-05-03T12:23:00;101079.63;;;21.01;50.01
54854;BME280;40747;49.480;8.658;2023-05-03T12:25:27;101081.47;;;21.00;50.22
54854;BME280;40747;49.480;8.658;2023-05-03T12:27:55;101072.31;;;21.32;48.62
54854;BME280;40747;49.480;8.658;2023-05-03T12:30:22;101059.91;;;21.31;48.78
54854;BME280;40747;49.480;8.658;2023-05-03T12:32:47;101056.97;;;21.48;50.23
54854;BME280;40747;49.480;8.658;2023-05-03T12:35:12;101057.63;;;20.95;49.57
54854;BME280;40747;49.480;8.658;2023-05-03T12:37:38;101049.03;;;20.76;49.61
54854;BME280;40747;49.480;8.658;2023-05-03T12:40:04;101040.34;;;20.72;50.48
54854;BME280;40747;49.480;8.658;2023-05-03T12:42:30;101036.53;;;20.91;49.12
54854;BME280;40747;49.480;8.658;2023-05-03T12:44:56;101036.28;;;21.08;49.05
54854;BME280;40747;49.480;8.658;2023-05-03T12:47:22;101031.94;;;20.78;49.41
54854;BME280;40747;49.480;8.658;2023-05-03T12:49:47;101033.81;;;21.05;49.87
54854;BME280;40747;49.480;8.658;2023-05-03T12:52:12;101034.97;;;21.16;49.78
54854;BME280;40747;49.480;8.658;2023-05-03T12:54:38;101030.44;;;21.31;48.94
54854;BME280;40747;49.480;8.658;2023-05-03T12:57:03;101025.69;;;21.49;48.73
54854;BME280;40747;49.480;8.658;2023-05-03T12:59:29;101020.06;;;21.39;49.29
54854;BME280;40747;49.480;8.658;2023-05-03T13:01:55;101026.84;;;21.59;49.47